Aviation Digital Data Service (ADDS)

Output produced by METARs form (1042 UTC 19 January 2019)
found at http://www.aviationweather.gov/metar/data/
 
SPHY 191000Z 00000KT 7000 2000NE SCT012 BKN070 07/01 Q1035 RMK RA NOCHE PP035
SPQU 191000Z VRB03KT 9999 FEW100 SCT150 13/09 Q1025 RMK PP000
SPQU 190500Z 1906/2006 VRB02KT 9999 SCT040 SCT100 TX21/1918Z TN12/1910Z 
     BECMG 1914/1916 25010KT 
     BECMG 2000/2002 11005KT
       
SPHO 191000Z 00000KT 9999 -DZ SCT035 SCT070 11/09 Q1029 RMK RA EM LA NOCHE PP003
SPJR 191000Z VRB02KT 9999 FEW025 BKN043 11/10 Q1026 RMK PP000
SPHI 191000Z 17011KT 9999 SCT040 OVC100 22/19 Q1011 RMK BIRD HAZARD RWY 19/01 PP000
SPHI 190500Z 1906/2006 18010KT 9999 SCT040 BKN100 TX31/1919Z TN21/1911Z 
     FM191600 18015KT CAVOK 
     FM200100 17010KT 9999 BKN040
       
SPZO 191000Z /////KT 9999 SCT040 BKN100 06/04 Q1033 RMK BIRD HAZARD RWY 28 PP000
SPZO 190500Z 1906/2006 VRB02KT 9999 SCT040 SCT100 TX21/1919Z TN08/1911Z 
     TEMPO 1910/1913 FEW020 SCT036 BKN080 
     TEMPO 1918/1921 36010KT FEW040TCU SCT050 BKN080
       
SPQT 191000Z 18003KT 9999 SCT010 OVC070 24/23 Q1011 NOSIG RMK PP000
TAF SPQT 190500Z 1906/2006 18003KT CAVOK TX30/1919Z TN22/1911Z 
     TEMPO 1909/1912 24003KT 3000 BCFG BKN005 
     BECMG 1912/1915 02005KT 9999 BKN020 SCT100 
     PROB30 
     TEMPO 1920/1922 06012KT 4000 SHRA BKN015 FEW025TCU BKN080
       
SPJE 191015Z 33003KT 5000 DZ BR BKN025 OVC050 20/20 Q1015
SPJL 182300Z 1900/1924 01005KT 9999 SCT020 SCT100 TX17/1918Z TN06/1910Z 
     FM190900 32005KT 9999 BKN015 BKN080 
     BECMG 1920/1923 03010KT
       
SPSO 191000Z 11003KT 8000 NSC 19/18 Q1010 RMK PP000
SPSO 190500Z 1906/2006 21005KT 8000 NSC TX27/1919Z TN18/1910Z 
     FM190800 VRB02KT 7000 SCT012 
     TEMPO 1911/1913 4000 BR BKN010 
     FM191400 30005KT 8000 FEW010 
     BECMG 1918/1920 22010KT
       
SPCL 191000Z 00000KT 9999 BKN020 23/22 Q1012 RMK PP000
SPCL 190500Z 1906/2006 VRB02KT 9999 BKN020 TX30/1920Z TN22/1911Z 
     TEMPO 1910/1913 00000KT 5000 RA BKN012 
     TEMPO 1921/2001 07010KT SCT012 FEW020TCU BKN080 
     BECMG 2002/2003 00000KT SCT015 SCT080
       
SPTN 191000Z 00000KT CAVOK 18/13 Q1014 RMK FEW200 BKN250 PP000
SPTN 190500Z 1906/2006 24005KT CAVOK TX26/1919Z TN18/1910Z 
     FM190800 VRB02KT 9999 SCT030 
     BECMG 1915/1917 21012KT 
     FM200300 19005KT 9999 BKN040
       
SPST 182300Z 1900/1924 12004KT 9999 SCT020 BKN080 TX32/1919Z TN22/1911Z 
     TEMPO 1911/1913 2000 BR BKN008
       
SPRU 191000Z 14004KT 8000 BKN130 21/19 Q1011 RMK BR PP000
SPRU 190500Z 1906/2006 13005KT 8000 BKN018 TX25/1919Z TN20/1911Z 
     TEMPO 1909/1912 4500 BR 
     FM191500 17010KT CAVOK 
     FM192300 14008KT 9999 ST060
       
TAF SPME 182300Z 1900/1924 27003KT 8000 OVC010 TX32/1918Z TN22/1911Z 
     TEMPO 1911/1913 4000 BR OVC008